createdAt,value
2019-05-05T00:00:41.196Z,99.90
2019-05-05T00:03:20.170Z,99.90
2019-05-05T00:05:48.986Z,99.90
2019-05-05T00:08:18.090Z,99.90
2019-05-05T00:11:05.272Z,99.90
2019-05-05T00:13:51.502Z,99.90
2019-05-05T00:16:28.675Z,99.90
2019-05-05T00:18:57.440Z,99.90
2019-05-05T00:21:26.438Z,99.90
2019-05-05T00:23:55.455Z,99.90
2019-05-05T00:26:24.449Z,99.90
2019-05-05T00:28:55.247Z,99.90
2019-05-05T00:31:24.340Z,99.90
2019-05-05T00:33:54.400Z,99.90
2019-05-05T00:36:24.593Z,99.90
2019-05-05T00:38:55.303Z,99.90
2019-05-05T00:41:25.315Z,99.90
2019-05-05T00:43:55.407Z,99.90
2019-05-05T00:46:37.509Z,99.90
2019-05-05T00:49:06.379Z,99.90
2019-05-05T00:51:35.101Z,99.90
2019-05-05T00:54:04.468Z,99.90
2019-05-05T00:56:34.296Z,99.90
2019-05-05T00:59:05.716Z,99.90
2019-05-05T01:01:56.494Z,99.90
2019-05-05T01:04:31.981Z,99.90
2019-05-05T01:07:00.928Z,99.90
2019-05-05T01:09:30.530Z,99.90
2019-05-05T01:11:59.494Z,99.90
2019-05-05T01:14:28.254Z,99.90
2019-05-05T01:16:57.289Z,99.90
2019-05-05T01:19:26.128Z,99.90
2019-05-05T01:21:54.878Z,99.90
2019-05-05T01:24:24.888Z,99.90
2019-05-05T01:26:55.124Z,99.90
2019-05-05T01:29:25.262Z,99.90
2019-05-05T01:31:55.980Z,99.90
2019-05-05T01:34:31.184Z,99.90
2019-05-05T01:37:05.550Z,99.90
2019-05-05T01:39:46.502Z,99.90
2019-05-05T01:42:15.596Z,99.90
2019-05-05T01:44:44.896Z,99.90
2019-05-05T01:47:14.769Z,99.90
2019-05-05T01:49:45.252Z,99.90
2019-05-05T01:52:15.029Z,99.90
2019-05-05T01:54:44.650Z,99.90
2019-05-05T01:57:14.865Z,99.90
2019-05-05T01:59:44.742Z,99.90
2019-05-05T02:02:14.628Z,99.90
2019-05-05T02:04:44.684Z,99.90
2019-05-05T02:07:14.673Z,99.90
2019-05-05T02:09:44.839Z,99.90
2019-05-05T02:12:15.796Z,99.90
2019-05-05T02:14:44.607Z,99.90
2019-05-05T02:17:14.406Z,99.90
2019-05-05T02:19:44.314Z,99.90
2019-05-05T02:22:14.722Z,99.90
2019-05-05T02:24:44.478Z,99.90
2019-05-05T02:27:14.595Z,99.90
2019-05-05T02:29:52.066Z,99.90
2019-05-05T02:32:37.033Z,99.90
2019-05-05T02:35:09.663Z,99.90
2019-05-05T02:37:38.572Z,99.90
2019-05-05T02:40:08.933Z,99.90
2019-05-05T02:42:37.917Z,99.90
2019-05-05T02:45:08.961Z,99.90
2019-05-05T02:47:58.173Z,99.90
2019-05-05T02:50:48.342Z,99.90
2019-05-05T02:53:04.069Z,99.90
2019-05-05T02:55:34.910Z,99.90
2019-05-05T02:58:03.902Z,99.90
2019-05-05T03:00:50.545Z,99.90
2019-05-05T03:03:19.545Z,99.90
2019-05-05T03:05:48.486Z,99.90
2019-05-05T03:08:17.494Z,99.90
2019-05-05T03:10:46.406Z,99.90
2019-05-05T03:13:16.040Z,99.90
2019-05-05T03:15:54.969Z,99.90
2019-05-05T03:18:24.705Z,99.90
2019-05-05T03:21:02.376Z,99.90
2019-05-05T03:23:24.760Z,99.90
2019-05-05T03:25:54.598Z,99.90
2019-05-05T03:28:25.703Z,99.90
2019-05-05T03:30:55.757Z,99.90
2019-05-05T03:33:25.262Z,99.90
2019-05-05T03:35:58.311Z,99.90
2019-05-05T03:38:27.285Z,99.90
2019-05-05T03:40:57.745Z,99.90
2019-05-05T03:43:30.658Z,99.90
2019-05-05T03:46:05.025Z,99.90
2019-05-05T03:48:34.621Z,99.90
2019-05-05T03:51:16.081Z,99.90
2019-05-05T03:53:34.415Z,99.90
2019-05-05T03:56:03.933Z,99.90
2019-05-05T03:58:34.452Z,99.90
2019-05-05T04:01:36.050Z,99.90
2019-05-05T04:04:24.394Z,99.90
2019-05-05T04:06:54.468Z,99.90
2019-05-05T04:09:24.287Z,99.90
2019-05-05T04:11:53.974Z,99.90
2019-05-05T04:14:24.963Z,99.90
2019-05-05T04:17:04.392Z,99.90
2019-05-05T04:19:34.329Z,99.90
2019-05-05T04:22:04.273Z,99.90
2019-05-05T04:24:34.182Z,99.90
2019-05-05T04:27:04.066Z,99.90
2019-05-05T04:29:34.493Z,99.90
2019-05-05T04:32:04.634Z,99.90
2019-05-05T04:34:34.726Z,99.90
2019-05-05T04:37:04.271Z,99.90
2019-05-05T04:39:34.360Z,99.90
2019-05-05T04:42:04.710Z,99.90
2019-05-05T04:44:34.564Z,99.90
2019-05-05T04:47:10.321Z,99.90
2019-05-05T04:49:48.065Z,99.90
2019-05-05T04:52:17.777Z,99.90
2019-05-05T04:54:48.812Z,99.90
2019-05-05T04:57:17.721Z,99.90
2019-05-05T04:59:48.094Z,99.90
2019-05-05T05:02:38.936Z,99.90
2019-05-05T05:05:15.131Z,99.90
2019-05-05T05:07:44.003Z,99.90
2019-05-05T05:10:13.820Z,99.90
2019-05-05T05:12:43.571Z,99.90
2019-05-05T05:15:14.603Z,99.90
2019-05-05T05:17:50.055Z,99.90
2019-05-05T05:20:18.916Z,99.90
2019-05-05T05:22:47.683Z,99.90
2019-05-05T05:25:16.491Z,99.90
2019-05-05T05:27:47.962Z,99.90
2019-05-05T05:30:17.794Z,99.90
2019-05-05T05:32:46.628Z,99.90
2019-05-05T05:35:15.436Z,99.90
2019-05-05T05:37:45.221Z,99.90
2019-05-05T05:40:25.411Z,99.90
2019-05-05T05:42:57.757Z,99.90
2019-05-05T05:45:44.488Z,99.90
2019-05-05T05:48:35.961Z,99.90
2019-05-05T05:51:07.685Z,99.90
2019-05-05T05:53:37.918Z,99.90
2019-05-05T05:56:07.084Z,99.90
2019-05-05T05:58:36.077Z,99.90
2019-05-05T06:01:04.751Z,99.90
2019-05-05T06:03:36.451Z,99.90
2019-05-05T06:06:24.492Z,99.90
2019-05-05T06:08:56.249Z,99.90
2019-05-05T06:11:25.000Z,99.90
2019-05-05T06:13:54.472Z,99.90
2019-05-05T06:16:26.611Z,99.90
2019-05-05T06:18:55.604Z,99.90
2019-05-05T06:21:24.518Z,99.90
2019-05-05T06:23:53.837Z,99.90
2019-05-05T06:26:24.013Z,99.90
2019-05-05T06:28:54.066Z,99.90
2019-05-05T06:31:24.542Z,99.90
2019-05-05T06:33:54.341Z,99.90
2019-05-05T06:36:23.604Z,99.90
2019-05-05T06:38:54.122Z,99.90
2019-05-05T06:41:43.478Z,99.90
2019-05-05T06:44:37.495Z,99.90
2019-05-05T06:47:09.245Z,99.90
2019-05-05T06:49:39.277Z,99.90
2019-05-05T06:52:08.122Z,99.90
2019-05-05T06:54:36.955Z,99.90
2019-05-05T06:57:05.713Z,99.90
2019-05-05T06:59:35.144Z,99.90
2019-05-05T07:02:06.201Z,99.90
2019-05-05T07:04:38.305Z,99.90
2019-05-05T07:07:07.250Z,99.90
2019-05-05T07:09:36.976Z,99.90
2019-05-05T07:12:05.860Z,99.90
2019-05-05T07:14:49.601Z,99.90
2019-05-05T07:17:18.760Z,99.90
2019-05-05T07:19:48.096Z,99.90
2019-05-05T07:22:17.911Z,99.90
2019-05-05T07:24:46.631Z,99.90
2019-05-05T07:27:15.732Z,99.90
2019-05-05T07:29:50.352Z,99.90
2019-05-05T07:32:19.087Z,99.90
2019-05-05T07:35:14.416Z,99.90
2019-05-05T07:37:43.637Z,99.90
2019-05-05T07:40:13.892Z,99.90
2019-05-05T07:42:44.053Z,99.90
2019-05-05T07:45:22.067Z,99.90
2019-05-05T07:47:47.263Z,99.90
2019-05-05T07:50:28.521Z,99.90
2019-05-05T07:52:47.003Z,99.90
2019-05-05T07:55:16.237Z,99.90
2019-05-05T07:57:48.643Z,99.90
2019-05-05T08:00:21.385Z,99.90
2019-05-05T08:02:54.415Z,99.90
2019-05-05T08:05:24.582Z,99.90
2019-05-05T08:07:54.009Z,99.90
2019-05-05T08:10:24.180Z,99.90
2019-05-05T08:12:54.188Z,99.90
2019-05-05T08:15:24.693Z,96.40
2019-05-05T08:18:15.141Z,98.00
2019-05-05T08:20:47.530Z,94.20
2019-05-05T08:23:32.295Z,96.00
2019-05-05T08:26:13.740Z,94.20
2019-05-05T08:28:59.430Z,94.30
2019-05-05T08:31:48.438Z,92.10
2019-05-05T08:34:17.247Z,91.30
2019-05-05T08:36:46.609Z,91.10
2019-05-05T08:39:15.407Z,90.50
2019-05-05T08:41:45.405Z,91.70
2019-05-05T08:44:17.896Z,83.90
2019-05-05T08:46:45.601Z,88.10
2019-05-05T08:49:14.445Z,84.00
2019-05-05T08:51:44.231Z,89.40
2019-05-05T08:54:14.346Z,90.80
2019-05-05T08:56:44.760Z,84.90
2019-05-05T08:59:14.321Z,84.20
2019-05-05T09:01:44.923Z,78.80
2019-05-05T09:04:14.283Z,81.70
2019-05-05T09:06:43.756Z,81.60
2019-05-05T09:09:14.433Z,79.90
2019-05-05T09:11:43.853Z,81.70
2019-05-05T09:14:14.925Z,75.40
2019-05-05T09:16:44.833Z,75.50
2019-05-05T09:19:17.954Z,77.20
2019-05-05T09:21:46.766Z,78.90
2019-05-05T09:24:35.026Z,77.20
2019-05-05T09:27:20.040Z,78.30
2019-05-05T09:29:49.154Z,77.70
2019-05-05T09:32:17.953Z,74.60
2019-05-05T09:34:46.841Z,72.70
2019-05-05T09:37:15.951Z,73.20
2019-05-05T09:39:55.021Z,72.70
2019-05-05T09:42:23.882Z,73.20
2019-05-05T09:44:54.148Z,71.20
2019-05-05T09:47:24.001Z,72.30
2019-05-05T09:49:54.974Z,72.20
2019-05-05T09:52:24.397Z,73.80
2019-05-05T09:54:54.461Z,71.10
2019-05-05T09:57:23.836Z,69.40
2019-05-05T09:59:54.381Z,71.80
2019-05-05T10:02:24.048Z,67.50
2019-05-05T10:04:54.624Z,67.60
2019-05-05T10:07:24.211Z,66.20
2019-05-05T10:09:54.236Z,69.60
2019-05-05T10:12:23.180Z,77.20
2019-05-05T10:14:54.061Z,69.70
2019-05-05T10:17:24.392Z,70.10
2019-05-05T10:19:54.679Z,66.20
2019-05-05T10:22:23.922Z,66.30
2019-05-05T10:25:13.301Z,75.30
2019-05-05T10:27:47.522Z,61.30
2019-05-05T10:30:14.295Z,60.00
2019-05-05T10:32:43.884Z,62.40
2019-05-05T10:35:14.332Z,64.70
2019-05-05T10:37:45.691Z,65.90
2019-05-05T10:40:16.428Z,59.30
2019-05-05T10:42:53.707Z,57.10
2019-05-05T10:45:24.427Z,57.80
2019-05-05T10:47:53.643Z,58.10
2019-05-05T10:50:24.727Z,62.80
2019-05-05T10:52:53.800Z,62.60
2019-05-05T10:55:24.115Z,59.40
2019-05-05T10:57:54.247Z,56.70
2019-05-05T11:00:44.381Z,58.60
2019-05-05T11:03:14.895Z,57.20
2019-05-05T11:05:44.923Z,56.10
2019-05-05T11:08:16.652Z,57.40
2019-05-05T11:10:45.699Z,57.40
2019-05-05T11:13:14.583Z,60.00
2019-05-05T11:15:44.294Z,58.00
2019-05-05T11:18:16.352Z,64.60
2019-05-05T11:20:45.282Z,60.00
2019-05-05T11:23:15.133Z,57.80
2019-05-05T11:25:44.672Z,56.00
2019-05-05T11:28:13.605Z,57.30
2019-05-05T11:30:43.795Z,56.70
2019-05-05T11:33:35.260Z,55.90
2019-05-05T11:36:13.584Z,56.50
2019-05-05T11:38:44.392Z,56.10
2019-05-05T11:41:14.347Z,56.60
2019-05-05T11:43:43.497Z,60.10
2019-05-05T11:46:14.098Z,56.30
2019-05-05T11:48:43.932Z,56.60
2019-05-05T11:51:14.892Z,56.80
2019-05-05T11:53:44.643Z,59.60
2019-05-05T11:56:14.497Z,57.00
2019-05-05T11:58:44.247Z,59.90
2019-05-05T12:01:13.923Z,53.60
2019-05-05T12:03:44.442Z,52.90
2019-05-05T12:06:14.724Z,54.80
2019-05-05T12:08:45.974Z,55.10
2019-05-05T12:11:15.223Z,56.40
2019-05-05T12:13:44.229Z,55.40
2019-05-05T12:16:14.778Z,52.50
2019-05-05T12:18:44.882Z,56.50
2019-05-05T12:21:14.102Z,59.20
2019-05-05T12:23:44.467Z,54.40
2019-05-05T12:26:34.654Z,59.10
2019-05-05T12:29:24.418Z,54.50
2019-05-05T12:31:53.512Z,55.40
2019-05-05T12:34:23.664Z,57.20
2019-05-05T12:36:53.979Z,59.20
2019-05-05T12:39:23.010Z,58.80
2019-05-05T12:41:54.098Z,59.90
2019-05-05T12:44:27.354Z,58.90
2019-05-05T12:47:07.765Z,58.00
2019-05-05T12:49:36.719Z,58.40
2019-05-05T12:52:05.789Z,59.70
2019-05-05T12:54:34.681Z,59.70
2019-05-05T12:57:04.423Z,60.20
2019-05-05T12:59:33.958Z,60.00
2019-05-05T13:02:03.856Z,59.70
2019-05-05T13:04:33.917Z,57.60
2019-05-05T13:07:05.525Z,61.30
2019-05-05T13:09:34.781Z,60.70
2019-05-05T13:12:04.476Z,60.30
2019-05-05T13:14:33.739Z,61.10
2019-05-05T13:17:03.633Z,61.50
2019-05-05T13:19:45.317Z,60.20
2019-05-05T13:22:26.205Z,60.30
2019-05-05T13:25:17.081Z,59.60
2019-05-05T13:27:46.021Z,60.20
2019-05-05T13:30:17.112Z,61.60
2019-05-05T13:32:46.062Z,60.60
2019-05-05T13:35:15.547Z,60.30
2019-05-05T13:37:44.562Z,59.00
2019-05-05T13:40:13.716Z,61.30
2019-05-05T13:42:44.008Z,61.30
2019-05-05T13:45:34.336Z,61.80
2019-05-05T13:48:03.621Z,60.10
2019-05-05T13:50:36.361Z,67.20
2019-05-05T13:53:05.591Z,62.20
2019-05-05T13:55:35.216Z,60.50
2019-05-05T13:58:04.136Z,59.60
2019-05-05T14:00:33.795Z,58.90
2019-05-05T14:03:03.869Z,61.10
2019-05-05T14:05:34.416Z,59.70
2019-05-05T14:08:04.172Z,59.10
2019-05-05T14:10:33.416Z,59.40
2019-05-05T14:13:03.951Z,60.90
2019-05-05T14:15:34.123Z,60.00
2019-05-05T14:18:03.893Z,59.00
2019-05-05T14:20:34.510Z,58.50
2019-05-05T14:23:04.128Z,56.50
2019-05-05T14:25:32.964Z,59.10
2019-05-05T14:28:03.895Z,58.90
2019-05-05T14:30:49.027Z,60.50
2019-05-05T14:33:23.692Z,58.30
2019-05-05T14:35:59.042Z,57.20
2019-05-05T14:38:36.664Z,58.00
2019-05-05T14:41:05.677Z,54.00
2019-05-05T14:43:34.633Z,56.90
2019-05-05T14:46:03.888Z,57.00
2019-05-05T14:48:34.020Z,55.70
2019-05-05T14:51:03.920Z,58.80
2019-05-05T14:53:34.829Z,57.30
2019-05-05T14:56:04.672Z,57.80
2019-05-05T14:58:33.703Z,56.90
2019-05-05T15:01:04.481Z,57.80
2019-05-05T15:03:33.733Z,58.60
2019-05-05T15:06:15.374Z,59.00
2019-05-05T15:08:55.128Z,56.50
2019-05-05T15:11:53.838Z,56.60
2019-05-05T15:14:24.424Z,57.10
2019-05-05T15:16:54.310Z,56.50
2019-05-05T15:19:23.792Z,57.60
2019-05-05T15:21:53.623Z,57.70
2019-05-05T15:24:24.418Z,56.10
2019-05-05T15:26:54.911Z,57.60
2019-05-05T15:29:25.267Z,57.70
2019-05-05T15:31:54.528Z,57.60
2019-05-05T15:34:24.062Z,57.10
2019-05-05T15:36:54.691Z,57.60
2019-05-05T15:39:24.596Z,57.70
2019-05-05T15:41:54.336Z,58.50
2019-05-05T15:44:24.159Z,59.80
2019-05-05T15:46:57.326Z,57.60
2019-05-05T15:49:24.064Z,55.60
2019-05-05T15:51:53.970Z,56.60
2019-05-05T15:54:23.604Z,58.60
2019-05-05T15:57:04.796Z,63.20
2019-05-05T15:59:24.156Z,57.90
2019-05-05T16:01:54.835Z,57.30
2019-05-05T16:04:23.804Z,56.70
2019-05-05T16:06:54.090Z,56.70
2019-05-05T16:09:23.101Z,58.30
2019-05-05T16:11:54.671Z,58.70
2019-05-05T16:14:34.869Z,58.70
2019-05-05T16:17:29.401Z,58.20
2019-05-05T16:20:06.217Z,62.20
2019-05-05T16:22:37.946Z,61.50
2019-05-05T16:25:09.914Z,58.50
2019-05-05T16:27:39.197Z,59.30
2019-05-05T16:30:10.389Z,61.90
2019-05-05T16:32:39.224Z,59.50
2019-05-05T16:35:18.380Z,59.60
2019-05-05T16:37:51.158Z,60.10
2019-05-05T16:40:23.251Z,60.50
2019-05-05T16:42:51.934Z,61.60
2019-05-05T16:45:21.420Z,60.20
2019-05-05T16:47:54.559Z,59.80
2019-05-05T16:50:22.408Z,59.10
2019-05-05T16:52:57.635Z,58.60
2019-05-05T16:55:49.961Z,60.80
2019-05-05T16:58:19.198Z,61.00
2019-05-05T17:00:47.979Z,59.40
2019-05-05T17:03:16.726Z,59.30
2019-05-05T17:05:46.737Z,58.80
2019-05-05T17:08:16.024Z,58.30
2019-05-05T17:10:45.062Z,60.70
2019-05-05T17:13:29.883Z,63.60
2019-05-05T17:16:15.663Z,61.30
2019-05-05T17:18:55.731Z,63.30
2019-05-05T17:21:34.124Z,61.20
2019-05-05T17:24:03.192Z,59.10
2019-05-05T17:26:32.060Z,60.50
2019-05-05T17:29:03.747Z,60.70
2019-05-05T17:31:34.148Z,62.60
2019-05-05T17:34:04.466Z,61.80
2019-05-05T17:36:33.616Z,62.70
2019-05-05T17:39:02.393Z,64.00
2019-05-05T17:41:51.330Z,64.90
2019-05-05T17:44:29.288Z,66.30
2019-05-05T17:47:29.532Z,63.70
2019-05-05T17:50:07.898Z,62.90
2019-05-05T17:52:49.282Z,62.90
2019-05-05T17:55:28.242Z,63.70
2019-05-05T17:58:01.583Z,64.60
2019-05-05T18:00:29.956Z,64.50
2019-05-05T18:03:00.177Z,63.50
2019-05-05T18:06:03.847Z,67.90
2019-05-05T18:08:59.668Z,72.20
2019-05-05T18:11:53.585Z,72.20
2019-05-05T18:14:44.222Z,72.80
2019-05-05T18:17:13.677Z,74.70
2019-05-05T18:19:45.040Z,75.30
2019-05-05T18:22:14.520Z,71.10
2019-05-05T18:24:44.576Z,75.70
2019-05-05T18:27:28.875Z,75.90
2019-05-05T18:30:01.388Z,77.10
2019-05-05T18:32:31.808Z,79.20
2019-05-05T18:35:06.896Z,78.10
2019-05-05T18:37:44.494Z,78.90
2019-05-05T18:40:17.454Z,81.20
2019-05-05T18:42:54.884Z,79.40
2019-05-05T18:45:23.811Z,80.70
2019-05-05T18:47:55.245Z,78.60
2019-05-05T18:50:24.507Z,80.00
2019-05-05T18:52:53.909Z,80.20
2019-05-05T18:55:23.727Z,79.40
2019-05-05T18:57:54.164Z,80.10
2019-05-05T19:00:44.023Z,82.60
2019-05-05T19:03:20.523Z,81.10
2019-05-05T19:05:53.579Z,82.30
2019-05-05T19:08:28.829Z,81.60
2019-05-05T19:10:57.936Z,84.60
2019-05-05T19:13:27.166Z,84.00
2019-05-05T19:15:56.145Z,84.10
2019-05-05T19:18:29.014Z,84.30
2019-05-05T19:21:03.666Z,83.60
2019-05-05T19:23:33.818Z,82.30
2019-05-05T19:26:07.361Z,81.90
2019-05-05T19:28:42.099Z,82.50
2019-05-05T19:31:05.308Z,83.90
2019-05-05T19:33:34.218Z,85.20
2019-05-05T19:36:04.956Z,86.10
2019-05-05T19:38:34.555Z,82.30
2019-05-05T19:41:03.993Z,84.00
2019-05-05T19:43:33.978Z,81.80
2019-05-05T19:46:04.309Z,83.50
2019-05-05T19:48:33.974Z,83.80
2019-05-05T19:51:09.584Z,84.20
2019-05-05T19:53:38.637Z,84.90
2019-05-05T19:56:07.498Z,86.30
2019-05-05T19:58:36.736Z,85.80
2019-05-05T20:01:07.105Z,85.20
2019-05-05T20:03:36.178Z,85.00
2019-05-05T20:06:05.526Z,87.60
2019-05-05T20:08:41.170Z,86.20
2019-05-05T20:11:05.193Z,86.30
2019-05-05T20:13:33.976Z,86.90
2019-05-05T20:16:24.884Z,87.10
2019-05-05T20:18:54.640Z,87.80
2019-05-05T20:21:23.716Z,88.00
2019-05-05T20:23:52.564Z,87.70
2019-05-05T20:26:21.404Z,87.50
2019-05-05T20:28:50.477Z,87.30
2019-05-05T20:31:19.625Z,88.10
2019-05-05T20:34:05.240Z,90.00
2019-05-05T20:36:34.699Z,88.80
2019-05-05T20:39:04.885Z,89.40
2019-05-05T20:41:33.958Z,89.30
2019-05-05T20:44:05.741Z,89.70
2019-05-05T20:46:34.378Z,90.30
2019-05-05T20:49:03.927Z,90.50
2019-05-05T20:51:33.950Z,90.40
2019-05-05T20:54:04.913Z,90.80
2019-05-05T20:56:33.845Z,91.30
2019-05-05T20:59:02.830Z,91.50
2019-05-05T21:01:31.740Z,91.60
2019-05-05T21:04:00.536Z,92.20
2019-05-05T21:06:29.399Z,93.00
2019-05-05T21:08:58.294Z,93.40
2019-05-05T21:11:27.071Z,92.20
2019-05-05T21:13:55.937Z,92.10
2019-05-05T21:16:26.096Z,92.30
2019-05-05T21:18:54.887Z,92.60
2019-05-05T21:21:26.502Z,93.50
2019-05-05T21:24:00.126Z,93.20
2019-05-05T21:27:05.996Z,93.00
2019-05-05T21:29:41.474Z,93.10
2019-05-05T21:32:05.378Z,93.70
2019-05-05T21:34:34.343Z,93.80
2019-05-05T21:37:04.434Z,94.00
2019-05-05T21:39:34.984Z,93.60
2019-05-05T21:42:04.626Z,93.90
2019-05-05T21:44:34.388Z,93.20
2019-05-05T21:47:03.515Z,93.40
2019-05-05T21:49:33.770Z,93.70
2019-05-05T21:52:11.222Z,95.10
2019-05-05T21:54:59.251Z,94.90
2019-05-05T21:57:50.076Z,94.90
2019-05-05T22:00:37.020Z,95.20
2019-05-05T22:03:06.110Z,95.60
2019-05-05T22:05:34.890Z,95.40
2019-05-05T22:08:04.726Z,96.20
2019-05-05T22:10:34.304Z,96.50
2019-05-05T22:13:04.835Z,96.10
2019-05-05T22:15:36.134Z,96.60
2019-05-05T22:18:04.953Z,96.80
2019-05-05T22:20:41.021Z,97.30
2019-05-05T22:23:09.850Z,96.10
2019-05-05T22:25:38.691Z,96.40
2019-05-05T22:28:07.602Z,96.80
2019-05-05T22:30:37.152Z,96.70
2019-05-05T22:33:06.194Z,98.10
2019-05-05T22:35:35.201Z,97.80
2019-05-05T22:38:06.045Z,97.80
2019-05-05T22:40:34.797Z,97.60
2019-05-05T22:43:03.781Z,97.10
2019-05-05T22:45:34.216Z,99.50
2019-05-05T22:48:04.721Z,98.60
2019-05-05T22:50:34.054Z,98.20
2019-05-05T22:53:02.812Z,97.80
2019-05-05T22:55:34.248Z,97.30
2019-05-05T22:58:04.048Z,97.80
2019-05-05T23:00:34.836Z,97.90
2019-05-05T23:03:10.696Z,98.30
2019-05-05T23:05:44.774Z,98.50
2019-05-05T23:08:13.666Z,98.60
2019-05-05T23:10:43.747Z,99.30
2019-05-05T23:13:13.547Z,99.50
2019-05-05T23:15:48.647Z,99.90
2019-05-05T23:18:25.704Z,99.90
2019-05-05T23:21:15.643Z,99.90
2019-05-05T23:24:03.771Z,99.90
2019-05-05T23:26:35.938Z,99.90
2019-05-05T23:29:04.817Z,99.90
2019-05-05T23:31:33.663Z,99.90
2019-05-05T23:34:04.019Z,99.90
2019-05-05T23:36:34.013Z,99.90
2019-05-05T23:39:05.131Z,99.90
2019-05-05T23:41:34.846Z,99.90
2019-05-05T23:44:04.199Z,99.90
2019-05-05T23:46:34.875Z,99.90
2019-05-05T23:49:04.286Z,99.90
2019-05-05T23:51:34.692Z,99.90
2019-05-05T23:54:04.310Z,99.90
2019-05-05T23:56:35.027Z,99.90
2019-05-05T23:59:04.297Z,99.90
